Time;durP1;ratioP1;P1;durP2;ratioP2;P2;SDS_P1;SDS_P2;PMS_P1;PMS_P2;Temp;Humidity;BMP_temperature;BMP_pressure;BME280_temperature;BME280_humidity;BME280_pressure;Samples;Min_cycle;Max_cycle;Signal;HPM_P1;HPM_P2
2021/11/25 00:02:45;;;;;;;11.60;10.40;;;;;;;5.05;66.52;99893.81;10295703;28;20121;-65
2021/11/25 00:07:47;;;;;;;13.75;12.10;;;;;;;4.89;66.41;99891.28;10287484;28;20174;-66
2021/11/25 00:12:48;;;;;;;16.58;12.80;;;;;;;5.01;66.50;99888.84;10288839;28;20073;-65
2021/11/25 00:17:50;;;;;;;14.32;12.82;;;;;;;5.16;65.71;99882.56;10289499;28;20137;-66
2021/11/25 00:22:51;;;;;;;15.77;12.68;;;;;;;5.07;65.78;99873.44;10287718;28;20047;-66
2021/11/25 00:27:53;;;;;;;15.45;13.60;;;;;;;5.02;65.19;99867.63;10295968;28;20135;-64
2021/11/25 00:32:55;;;;;;;13.77;12.23;;;;;;;4.93;65.95;99871.69;10288277;28;20141;-64
2021/11/25 00:37:56;;;;;;;14.88;12.02;;;;;;;5.02;65.07;99869.44;10287871;28;20062;-64
2021/11/25 00:42:58;;;;;;;15.93;12.23;;;;;;;5.11;65.22;99858.28;10294837;28;20046;-64
2021/11/25 00:47:59;;;;;;;15.15;12.95;;;;;;;5.14;64.81;99858.09;10286483;28;20053;-64
2021/11/25 00:53:01;;;;;;;14.35;12.57;;;;;;;5.04;64.51;99851.69;10289014;28;20398;-65
2021/11/25 00:58:02;;;;;;;14.52;12.43;;;;;;;5.07;63.96;99851.50;10286892;28;20054;-64
2021/11/25 01:03:04;;;;;;;16.70;12.52;;;;;;;5.05;63.83;99843.69;10284863;28;20145;-64
2021/11/25 01:08:05;;;;;;;14.73;12.35;;;;;;;5.04;63.95;99844.63;10289035;28;20503;-65
2021/11/25 01:13:07;;;;;;;17.17;12.75;;;;;;;5.05;64.18;99840.22;10285051;28;20137;-65
2021/11/25 01:18:11;;;;;;;15.75;12.40;;;;;;;5.13;63.20;99843.19;10324529;28;20493;-64
2021/11/25 01:23:15;;;;;;;16.35;13.68;;;;;;;5.02;63.62;99811.41;10324707;28;20074;-64
2021/11/25 01:28:18;;;;;;;16.60;12.98;;;;;;;5.07;63.10;99830.41;10334779;28;20074;-64
2021/11/25 01:33:20;;;;;;;14.93;12.32;;;;;;;5.06;63.19;99833.97;10285850;28;20049;-64
2021/11/25 01:38:22;;;;;;;17.17;14.55;;;;;;;4.89;63.34;99814.78;10288767;28;20056;-64
2021/11/25 01:43:25;;;;;;;17.33;13.65;;;;;;;5.04;63.31;99812.97;10287392;28;20042;-66
2021/11/25 01:48:27;;;;;;;16.98;13.70;;;;;;;5.00;63.52;99810.63;10279354;28;20058;-64
2021/11/25 01:53:28;;;;;;;16.73;13.38;;;;;;;4.99;63.38;99816.88;10317383;28;20150;-65
2021/11/25 01:58:30;;;;;;;15.85;13.90;;;;;;;4.92;63.16;99805.84;10322794;28;20088;-65
2021/11/25 02:03:32;;;;;;;15.00;13.32;;;;;;;4.94;62.97;99790.78;10325895;28;20064;-64
2021/11/25 02:08:33;;;;;;;15.45;13.18;;;;;;;4.92;63.48;99774.19;10323880;28;20428;-64
2021/11/25 02:13:35;;;;;;;16.35;14.60;;;;;;;4.82;63.01;99775.72;10323069;28;20462;-64
2021/11/25 02:18:37;;;;;;;16.52;14.25;;;;;;;4.84;63.59;99781.78;10325402;28;20352;-65
2021/11/25 02:23:39;;;;;;;17.85;14.30;;;;;;;4.76;63.88;99769.09;10331049;28;20243;-65
2021/11/25 02:28:40;;;;;;;17.10;13.82;;;;;;;4.81;63.83;99761.72;10342348;28;20056;-65
2021/11/25 02:33:42;;;;;;;18.70;13.93;;;;;;;4.82;63.11;99768.69;10333839;28;20129;-64
2021/11/25 02:38:44;;;;;;;16.40;14.00;;;;;;;4.72;63.53;99757.03;10345898;28;20284;-64
2021/11/25 02:43:45;;;;;;;19.73;14.75;;;;;;;4.69;63.70;99770.41;10337876;28;20694;-64
2021/11/25 02:48:51;;;;;;;18.70;14.02;;;;;;;4.83;63.66;99773.00;10357970;23;20401;-64
2021/11/25 02:53:54;;;;;;;19.15;15.95;;;;;;;4.88;63.54;99773.56;10342020;28;20146;-64
2021/11/25 02:58:58;;;;;;;20.30;15.73;;;;;;;4.76;63.25;99753.25;10340181;28;20077;-64
2021/11/25 03:04:01;;;;;;;19.70;14.77;;;;;;;4.73;63.63;99756.94;10349237;28;20042;-63
2021/11/25 03:09:04;;;;;;;17.30;14.43;;;;;;;4.74;63.74;99752.50;10365667;28;20170;-64
2021/11/25 03:14:08;;;;;;;18.63;14.70;;;;;;;4.78;63.45;99746.91;10352173;28;20050;-63
2021/11/25 03:19:12;;;;;;;18.30;14.70;;;;;;;4.78;63.94;99757.47;10344323;28;20088;-64
2021/11/25 03:24:13;;;;;;;19.00;15.02;;;;;;;4.69;63.81;99742.25;10337889;28;20046;-65
2021/11/25 03:29:15;;;;;;;18.63;15.00;;;;;;;4.78;64.21;99744.28;10328716;28;20058;-64
2021/11/25 03:34:16;;;;;;;18.73;15.38;;;;;;;4.80;64.24;99749.47;10342122;28;20050;-63
2021/11/25 03:39:18;;;;;;;20.90;16.08;;;;;;;4.77;63.88;99742.63;10349218;28;20750;-63
2021/11/25 03:44:19;;;;;;;20.75;16.20;;;;;;;4.72;63.89;99742.03;10338042;28;20656;-63
2021/11/25 03:49:21;;;;;;;19.20;15.27;;;;;;;4.82;63.59;99729.13;10326467;28;20499;-68
2021/11/25 03:54:22;;;;;;;21.58;17.10;;;;;;;4.76;63.61;99726.91;10330198;28;20085;-64
2021/11/25 03:59:24;;;;;;;20.10;15.48;;;;;;;4.79;63.54;99726.69;10326986;28;20062;-63
2021/11/25 04:04:26;;;;;;;20.10;15.38;;;;;;;4.87;63.84;99713.84;10336126;28;20042;-63
2021/11/25 04:09:27;;;;;;;21.88;16.13;;;;;;;4.94;63.33;99709.03;10325389;28;20045;-63
2021/11/25 04:14:28;;;;;;;19.90;15.38;;;;;;;4.91;63.39;99723.25;10324588;28;20034;-63
2021/11/25 04:19:30;;;;;;;18.75;14.48;;;;;;;4.92;64.03;99724.94;10295763;28;20058;-63
2021/11/25 04:24:31;;;;;;;18.90;15.05;;;;;;;4.96;63.38;99718.50;10278689;28;20386;-63
2021/11/25 04:29:35;;;;;;;18.38;14.80;;;;;;;4.85;64.15;99710.47;10280036;28;20065;-63
2021/11/25 04:39:57;;;;;;;20.40;17.27;;;;;;;4.81;64.74;99701.06;10328463;28;20048;-63
2021/11/25 04:44:58;;;;;;;20.15;16.30;;;;;;;4.92;64.01;99708.25;10318074;28;20060;-63
2021/11/25 04:49:59;;;;;;;20.83;16.45;;;;;;;4.96;63.85;99707.94;10332439;28;20054;-64
2021/11/25 04:55:01;;;;;;;21.73;16.83;;;;;;;5.08;63.87;99705.47;10333837;28;20050;-64
2021/11/25 05:00:05;;;;;;;17.77;14.82;;;;;;;4.94;63.71;99709.84;10344656;28;20504;-64
2021/11/25 05:05:07;;;;;;;20.45;16.27;;;;;;;4.97;63.54;99698.28;10285588;28;20074;-63
2021/11/25 05:10:11;;;;;;;19.15;16.27;;;;;;;4.66;64.41;99700.25;10285350;28;20070;-63
2021/11/25 05:15:15;;;;;;;19.40;16.13;;;;;;;4.85;63.67;99694.63;10279405;28;20146;-63
2021/11/25 05:20:17;;;;;;;21.07;17.87;;;;;;;4.93;62.98;99700.25;10274441;28;20046;-64
2021/11/25 05:25:19;;;;;;;20.33;17.30;;;;;;;4.95;63.56;99706.28;10285096;28;20082;-63
2021/11/25 05:30:20;;;;;;;20.17;16.65;;;;;;;4.97;63.52;99703.53;10275259;28;20122;-63
2021/11/25 05:35:22;;;;;;;19.23;15.65;;;;;;;5.06;63.45;99705.56;10277470;28;20086;-63
2021/11/25 05:40:23;;;;;;;19.20;14.57;;;;;;;5.05;62.94;99706.50;10289794;28;20042;-63
2021/11/25 05:45:26;;;;;;;18.63;15.50;;;;;;;5.14;62.54;99702.41;10279161;28;20527;-63
2021/11/25 05:50:27;;;;;;;18.13;14.85;;;;;;;5.07;62.48;99687.94;10282338;28;20070;-63
2021/11/25 05:55:30;;;;;;;20.30;16.65;;;;;;;4.96;63.44;99691.28;10280702;28;20141;-63
2021/11/25 06:00:31;;;;;;;18.35;16.15;;;;;;;5.06;62.68;99696.78;10282932;28;20066;-63
2021/11/25 06:05:33;;;;;;;18.35;15.70;;;;;;;5.06;62.87;99699.44;10276048;28;20050;-63
2021/11/25 06:10:35;;;;;;;16.77;14.05;;;;;;;5.09;62.78;99696.63;10290186;28;20140;-64
2021/11/25 06:15:36;;;;;;;18.80;15.18;;;;;;;5.22;63.20;99691.34;10286668;28;20112;-63
2021/11/25 06:20:37;;;;;;;18.17;14.98;;;;;;;5.28;62.94;99697.06;10283240;28;20475;-63
2021/11/25 06:25:41;;;;;;;18.10;14.93;;;;;;;5.10;62.46;99675.41;10289053;28;20181;-63
2021/11/25 06:30:42;;;;;;;19.92;15.32;;;;;;;5.05;62.92;99684.56;10290682;28;20526;-64
2021/11/25 06:35:44;;;;;;;18.08;15.80;;;;;;;4.91;62.61;99680.22;10296875;28;20085;-63
2021/11/25 06:40:46;;;;;;;18.38;14.60;;;;;;;4.96;62.88;99670.19;10292537;28;20590;-64
2021/11/25 06:45:48;;;;;;;19.33;15.35;;;;;;;4.99;63.26;99679.69;10288394;28;20168;-63
2021/11/25 06:50:49;;;;;;;19.20;15.52;;;;;;;5.05;62.88;99684.56;10287575;28;20128;-63
2021/11/25 06:55:51;;;;;;;17.05;14.38;;;;;;;5.07;62.80;99674.75;10275236;28;20500;-63
2021/11/25 07:00:53;;;;;;;17.88;15.50;;;;;;;5.07;62.60;99682.66;10288505;28;20141;-63
2021/11/25 07:05:54;;;;;;;18.00;15.07;;;;;;;5.09;62.52;99680.78;10280425;28;20852;-63
2021/11/25 07:10:58;;;;;;;19.48;17.15;;;;;;;5.14;62.46;99683.94;10293199;28;20140;-66
2021/11/25 07:16:00;;;;;;;17.83;15.18;;;;;;;5.15;62.61;99680.38;10302757;28;20042;-61
2021/11/25 07:21:02;;;;;;;19.67;16.10;;;;;;;5.16;62.85;99676.75;10303728;28;20054;-63
2021/11/25 07:26:07;;;;;;;18.88;15.93;;;;;;;5.24;63.01;99679.75;10296812;28;20054;-61
2021/11/25 07:31:09;;;;;;;;;;;;;;;5.32;62.43;99682.69;10348575;28;20053;-65
2021/11/25 07:36:13;;;;;;;20.52;16.45;;;;;;;5.26;62.25;99683.13;10347874;28;19929;-65
2021/11/25 07:41:15;;;;;;;18.92;15.85;;;;;;;5.27;62.27;99689.25;10344707;28;20123;-64
2021/11/25 07:46:16;;;;;;;20.92;16.65;;;;;;;5.18;62.43;99682.81;10353367;28;20490;-66
2021/11/25 07:51:18;;;;;;;20.38;15.90;;;;;;;5.10;62.68;99688.59;10364510;28;20061;-64
2021/11/25 07:56:20;;;;;;;17.35;13.82;;;;;;;5.24;62.57;99698.22;10345156;28;20064;-64
2021/11/25 08:01:22;;;;;;;21.55;16.83;;;;;;;5.19;62.69;99688.91;10293210;28;20133;-65
2021/11/25 08:06:23;;;;;;;18.98;15.73;;;;;;;5.16;62.35;99692.59;10286311;28;20423;-65
2021/11/25 08:11:27;;;;;;;20.10;14.63;;;;;;;5.12;62.54;99683.22;10300085;28;20134;-64
2021/11/25 08:16:28;;;;;;;16.88;14.35;;;;;;;5.14;62.69;99682.16;10300830;28;20137;-64
2021/11/25 08:21:30;;;;;;;19.00;15.20;;;;;;;5.11;62.67;99689.44;10297891;28;20134;-64
2021/11/25 08:26:32;;;;;;;16.83;14.70;;;;;;;5.21;62.98;99701.06;10300083;28;20042;-65
2021/11/25 08:31:33;;;;;;;20.05;16.30;;;;;;;5.15;62.53;99690.94;10298684;28;20124;-64
2021/11/25 08:36:35;;;;;;;19.10;15.88;;;;;;;5.15;62.94;99690.94;10312071;28;20511;-66
2021/11/25 08:41:36;;;;;;;21.52;17.45;;;;;;;5.24;62.74;99689.44;10308077;28;20058;-65
2021/11/25 08:46:38;;;;;;;22.63;16.83;;;;;;;5.21;62.65;99689.63;10301445;28;20107;-68
2021/11/25 08:51:40;;;;;;;24.58;18.50;;;;;;;5.32;62.74;99697.69;10312896;23;20665;-57
2021/11/25 08:56:41;;;;;;;21.77;17.40;;;;;;;5.17;63.15;99690.81;10295584;28;20515;-58
2021/11/25 09:01:42;;;;;;;23.15;18.85;;;;;;;5.19;62.76;99675.72;10303690;28;20178;-58
2021/11/25 09:06:44;;;;;;;21.15;17.08;;;;;;;5.26;62.96;99704.22;10292625;28;20120;-58
2021/11/25 09:11:46;;;;;;;22.45;18.13;;;;;;;5.27;62.73;99694.53;10311150;28;20136;-58
2021/11/25 09:16:48;;;;;;;21.05;17.02;;;;;;;5.35;62.01;99707.22;10312488;28;20077;-57
2021/11/25 09:21:49;;;;;;;20.85;16.77;;;;;;;5.32;62.09;99698.53;10308931;28;20050;-58
2021/11/25 09:26:51;;;;;;;20.52;17.15;;;;;;;5.30;62.37;99697.81;10310102;28;20375;-58
2021/11/25 09:31:52;;;;;;;23.60;18.55;;;;;;;5.32;62.10;99693.25;10310914;28;20458;-58
2021/11/25 09:36:54;;;;;;;20.95;18.27;;;;;;;5.30;62.69;99678.50;10309746;28;20050;-58
2021/11/25 09:41:55;;;;;;;21.35;17.67;;;;;;;5.37;61.88;99695.56;10309306;28;20435;-57
2021/11/25 09:46:58;;;;;;;20.83;16.88;;;;;;;5.37;62.47;99700.03;10303464;28;20053;-56
2021/11/25 09:52:00;;;;;;;24.23;18.65;;;;;;;5.24;62.06;99692.94;10307428;28;20132;-57
2021/11/25 09:57:01;;;;;;;22.55;17.20;;;;;;;5.23;61.86;99717.63;10307926;28;20073;-59
2021/11/25 10:02:04;;;;;;;23.10;18.60;;;;;;;5.14;62.51;99720.88;10306716;28;20506;-57
2021/11/25 10:07:06;;;;;;;24.27;18.77;;;;;;;5.06;63.21;99718.75;10305407;28;20049;-57
2021/11/25 10:12:37;;;;;;;21.77;17.58;;;;;;;5.14;63.30;99723.53;10303519;28;20524;-58
2021/11/25 10:17:46;;;;;;;19.52;16.02;;;;;;;5.19;63.16;99702.09;10301667;28;20053;-58
2021/11/25 10:23:03;;;;;;;21.98;17.60;;;;;;;5.41;62.74;99706.78;10296081;28;20053;-59
2021/11/25 10:28:05;;;;;;;23.08;16.92;;;;;;;5.38;62.68;99696.44;10305263;28;20764;-58
2021/11/25 10:33:06;;;;;;;23.33;17.48;;;;;;;5.44;62.88;99688.09;10304901;28;20419;-58
2021/11/25 10:43:21;;;;;;;20.42;17.27;;;;;;;5.07;64.25;99672.94;10286939;28;20188;-59
2021/11/25 10:48:35;;;;;;;24.33;17.80;;;;;;;5.26;63.49;99666.44;10348216;28;20057;-59
2021/11/25 10:53:36;;;;;;;20.10;16.87;;;;;;;5.40;62.66;99655.78;10350480;28;20152;-59
2021/11/25 10:58:51;;;;;;;21.38;17.92;;;;;;;5.08;63.24;99673.81;10348949;28;20156;-60
2021/11/25 11:03:57;;;;;;;21.67;17.50;;;;;;;4.94;63.82;99656.28;10352316;28;20470;-59
2021/11/25 11:08:59;;;;;;;23.40;18.13;;;;;;;5.14;63.77;99668.13;10345969;28;20043;-58
2021/11/25 11:19:31;;;;;;;24.95;18.27;;;;;;;5.40;62.93;99668.97;10312824;28;20060;-58
2021/11/25 11:24:35;;;;;;;25.63;19.60;;;;;;;5.20;63.96;99630.75;10309629;28;20561;-58
2021/11/25 11:29:37;;;;;;;23.33;18.73;;;;;;;5.59;62.83;99631.59;10349493;28;20049;-58
2021/11/25 11:34:39;;;;;;;22.20;18.55;;;;;;;5.84;62.29;99633.38;10350535;28;20076;-59
2021/11/25 11:39:41;;;;;;;24.27;18.88;;;;;;;5.96;61.54;99634.31;10351615;28;20064;-57
2021/11/25 11:44:44;;;;;;;25.23;19.30;;;;;;;5.95;61.99;99631.78;10353044;28;20136;-58
2021/11/25 11:49:47;;;;;;;24.52;18.38;;;;;;;6.03;61.84;99632.09;10351317;28;20067;-59
2021/11/25 11:54:54;;;;;;;22.60;18.30;;;;;;;6.03;61.67;99625.97;10353816;28;20119;-59
2021/11/25 11:59:58;;;;;;;26.02;19.27;;;;;;;6.06;61.26;99644.25;10340695;28;20044;-57
2021/11/25 12:04:59;;;;;;;20.35;17.27;;;;;;;6.13;61.45;99629.63;10354968;28;20839;-58
2021/11/25 12:10:03;;;;;;;20.80;17.75;;;;;;;6.07;60.37;99599.22;10348370;28;20057;-59
2021/11/25 12:15:05;;;;;;;19.38;15.73;;;;;;;6.25;60.86;99617.34;10349225;28;20083;-57
2021/11/25 12:20:24;;;;;;;22.85;17.95;;;;;;;6.19;60.39;99613.34;10349513;28;20061;-57
2021/11/25 12:25:39;;;;;;;18.80;15.15;;;;;;;6.22;60.24;99622.84;10288138;28;20057;-57
2021/11/25 12:30:41;;;;;;;19.58;15.32;;;;;;;6.25;60.24;99623.47;10339361;28;22267;-58
2021/11/25 12:35:44;;;;;;;19.60;15.93;;;;;;;6.27;60.66;99607.50;10349292;28;20200;-58
2021/11/25 12:40:55;;;;;;;20.50;15.90;;;;;;;6.32;60.27;99608.84;10308480;28;20054;-58
2021/11/25 12:46:07;;;;;;;21.83;16.05;;;;;;;6.18;59.53;99590.50;10356144;28;20045;-58
2021/11/25 12:51:15;;;;;;;18.67;15.60;;;;;;;6.05;61.45;99594.97;10356706;28;20091;-57
2021/11/25 12:56:22;;;;;;;22.02;17.45;;;;;;;6.22;60.21;99596.41;10351186;28;20132;-57
2021/11/25 13:01:28;;;;;;;21.20;16.70;;;;;;;6.32;59.67;99593.00;10353259;28;20275;-58
2021/11/25 13:06:31;;;;;;;18.58;14.32;;;;;;;6.48;59.82;99591.84;10353976;28;20482;-58
2021/11/25 13:11:35;;;;;;;18.85;14.77;;;;;;;6.55;58.97;99577.22;10349414;28;20085;-58
2021/11/25 13:16:46;;;;;;;15.80;13.37;;;;;;;6.49;57.70;99564.47;10355954;28;20184;-58
2021/11/25 13:21:50;;;;;;;15.63;12.85;;;;;;;6.49;59.24;99572.41;10351432;28;20137;-58
2021/11/25 13:27:13;;;;;;;16.77;12.25;;;;;;;6.57;58.09;99575.28;10352821;28;20049;-57
2021/11/25 13:32:25;;;;;;;12.43;10.53;;;;;;;6.67;58.28;99557.78;10310262;28;20468;-57
2021/11/25 13:37:41;;;;;;;13.73;10.70;;;;;;;6.53;57.03;99563.25;10349070;28;20482;-57
2021/11/25 13:42:45;;;;;;;10.45;9.02;;;;;;;6.37;56.65;99518.63;10347294;28;20455;-56
2021/11/25 13:47:48;;;;;;;10.53;8.70;;;;;;;6.60;57.06;99548.63;10346847;28;20049;-57
2021/11/25 13:52:55;;;;;;;13.07;10.00;;;;;;;6.66;56.22;99568.47;10350445;28;20186;-57
2021/11/25 13:57:58;;;;;;;15.85;12.80;;;;;;;6.66;57.28;99573.78;10348354;28;20099;-56
2021/11/25 14:03:13;;;;;;;13.40;11.43;;;;;;;6.58;57.14;99574.34;10296791;28;20475;-56
2021/11/25 14:08:16;;;;;;;14.38;11.70;;;;;;;6.55;57.90;99569.28;10349411;28;20136;-58
2021/11/25 14:13:28;;;;;;;17.30;12.80;;;;;;;6.63;56.92;99552.84;10341644;28;21398;-58
2021/11/25 14:18:40;;;;;;;16.80;13.10;;;;;;;6.72;58.18;99552.16;10345417;28;20065;-58
2021/11/25 14:23:42;;;;;;;16.33;12.73;;;;;;;6.65;57.21;99551.78;10345300;28;20816;-59
2021/11/25 14:34:05;;;;;;;18.00;13.38;;;;;;;6.76;57.59;99561.53;10346970;28;20425;-56
2021/11/25 14:39:17;;;;;;;15.20;12.38;;;;;;;6.50;57.46;99566.13;10342296;28;20151;-57
2021/11/25 14:44:21;;;;;;;15.38;12.20;;;;;;;6.19;58.45;99571.88;10343094;28;20147;-57
2021/11/25 14:49:25;;;;;;;16.40;14.55;;;;;;;6.13;58.83;99568.84;10339560;28;20171;-57
2021/11/25 14:54:27;;;;;;;15.48;12.65;;;;;;;6.32;59.17;99576.25;10302884;23;20129;-64
2021/11/25 14:59:29;;;;;;;17.55;13.07;;;;;;;6.43;58.29;99578.97;10285122;28;20077;-65
2021/11/25 15:04:33;;;;;;;16.05;13.40;;;;;;;6.52;57.68;99564.22;10286230;28;20050;-65
2021/11/25 15:09:34;;;;;;;15.27;12.90;;;;;;;6.50;58.08;99568.78;10291253;28;20065;-66
2021/11/25 15:14:40;;;;;;;16.38;13.20;;;;;;;6.18;59.04;99569.34;10286680;28;20057;-64
2021/11/25 15:19:42;;;;;;;16.73;13.30;;;;;;;6.30;59.25;99573.72;10251040;28;20045;-64
2021/11/25 15:24:43;;;;;;;15.60;13.93;;;;;;;6.01;60.31;99570.59;10247566;28;20410;-63
2021/11/25 15:29:44;;;;;;;17.50;14.50;;;;;;;5.86;60.79;99579.59;10252411;28;20053;-64
2021/11/25 15:34:55;;;;;;;15.30;13.52;;;;;;;5.99;60.58;99578.63;10254739;28;20057;-64
2021/11/25 15:39:57;;;;;;;17.23;14.52;;;;;;;6.00;60.12;99571.53;10257416;28;20584;-65
2021/11/25 15:44:58;;;;;;;16.50;13.63;;;;;;;5.99;60.80;99581.28;10256454;28;20432;-65
2021/11/25 15:49:59;;;;;;;16.63;13.73;;;;;;;5.89;60.86;99574.09;10258673;28;20072;-64
2021/11/25 15:55:01;;;;;;;15.57;13.68;;;;;;;5.97;60.97;99572.59;10256033;28;20058;-65
2021/11/25 16:00:07;;;;;;;15.50;13.48;;;;;;;5.96;61.14;99562.09;10257041;28;20229;-65
2021/11/25 16:05:08;;;;;;;16.98;13.52;;;;;;;5.98;61.31;99569.00;10293091;28;20440;-65
2021/11/25 16:10:10;;;;;;;17.52;14.55;;;;;;;5.98;60.92;99562.88;10295038;28;20050;-65
2021/11/25 16:15:12;;;;;;;18.65;14.38;;;;;;;5.97;61.60;99561.19;10293048;28;20054;-65
2021/11/25 16:20:13;;;;;;;18.08;14.95;;;;;;;5.95;60.20;99561.28;10295915;28;20052;-65
2021/11/25 16:25:15;;;;;;;17.65;14.25;;;;;;;5.94;60.87;99564.84;10258041;28;20058;-62
2021/11/25 16:30:17;;;;;;;23.98;20.27;;;;;;;5.95;60.39;99563.91;10256068;28;20111;-63
2021/11/25 16:35:18;;;;;;;22.23;18.20;;;;;;;5.79;61.70;99569.44;10277742;28;20058;-63
2021/11/25 16:40:20;;;;;;;25.17;20.08;;;;;;;5.75;62.50;99551.28;10295459;28;20500;-63
2021/11/25 16:45:21;;;;;;;21.85;17.38;;;;;;;5.71;62.02;99566.53;10256792;28;20039;-64
2021/11/25 16:50:23;;;;;;;22.95;17.88;;;;;;;5.70;62.59;99580.66;10254599;28;20098;-63
2021/11/25 16:55:24;;;;;;;21.58;17.48;;;;;;;5.65;62.51;99578.34;10252537;28;20100;-63
2021/11/25 17:00:26;;;;;;;20.42;17.23;;;;;;;5.58;62.46;99581.53;10257989;28;20464;-63
2021/11/25 17:05:28;;;;;;;24.40;18.08;;;;;;;5.53;63.04;99573.94;10250732;28;20074;-63
2021/11/25 17:10:29;;;;;;;23.88;18.27;;;;;;;5.52;62.89;99563.50;10253745;28;20145;-63
2021/11/25 17:15:31;;;;;;;21.55;18.17;;;;;;;5.38;63.87;99580.31;10253300;28;20061;-63
2021/11/25 17:20:32;;;;;;;24.05;19.05;;;;;;;5.38;63.93;99588.22;10253237;28;20409;-63
2021/11/25 17:25:34;;;;;;;21.65;17.40;;;;;;;5.52;63.38;99587.25;10255750;28;20061;-63
2021/11/25 17:30:35;;;;;;;23.85;17.88;;;;;;;5.31;63.57;99580.75;10252344;28;20055;-63
2021/11/25 17:35:37;;;;;;;31.90;28.38;;;;;;;5.27;64.25;99595.09;10252698;28;20142;-63
2021/11/25 17:40:39;;;;;;;26.00;21.25;;;;;;;5.24;64.44;99587.38;10250653;28;20122;-61
2021/11/25 17:45:44;;;;;;;27.40;22.13;;;;;;;5.17;64.96;99591.38;10253436;28;20063;-62
2021/11/25 17:50:46;;;;;;;31.65;27.30;;;;;;;5.24;64.73;99584.75;10255244;28;20321;-63
2021/11/25 17:55:48;;;;;;;42.47;34.67;;;;;;;4.95;65.64;99579.69;10252214;28;20129;-62
2021/11/25 18:00:50;;;;;;;27.27;21.67;;;;;;;5.03;65.79;99594.13;10252015;28;20320;-63
2021/11/25 18:05:51;;;;;;;26.15;19.98;;;;;;;4.88;65.82;99610.03;10252667;28;20117;-64
2021/11/25 18:10:53;;;;;;;26.77;22.02;;;;;;;4.77;66.18;99607.25;10252926;28;20469;-64
2021/11/25 18:15:54;;;;;;;26.23;21.13;;;;;;;4.70;66.28;99619.16;10249506;28;20066;-64
2021/11/25 18:20:56;;;;;;;28.38;21.10;;;;;;;4.75;66.50;99610.00;10248709;28;20055;-64
2021/11/25 18:26:19;;;;;;;27.42;21.55;;;;;;;4.81;66.47;99597.38;10251483;28;20065;-64
2021/11/25 18:31:21;;;;;;;26.27;20.48;;;;;;;4.85;66.26;99610.25;10251859;28;20043;-64
2021/11/25 18:36:25;;;;;;;30.02;21.98;;;;;;;4.95;66.28;99611.31;10251420;28;20054;-64
2021/11/25 18:41:27;;;;;;;29.60;22.60;;;;;;;4.95;65.99;99605.19;10253925;28;20419;-63
2021/11/25 18:46:29;;;;;;;25.00;20.08;;;;;;;4.94;66.27;99607.00;10253048;28;20141;-64
2021/11/25 18:51:30;;;;;;;24.20;19.98;;;;;;;4.78;65.88;99606.31;10249439;28;20181;-63
2021/11/25 18:56:32;;;;;;;33.65;24.35;;;;;;;4.77;66.33;99618.69;10252652;28;20043;-63
2021/11/25 19:01:34;;;;;;;26.67;19.63;;;;;;;4.60;66.49;99617.13;10253298;28;20055;-64
2021/11/25 19:06:36;;;;;;;29.27;21.15;;;;;;;4.73;66.48;99619.00;10253078;28;20085;-64
2021/11/25 19:11:40;;;;;;;26.10;20.80;;;;;;;4.71;66.55;99618.22;10253262;28;20057;-63
2021/11/25 19:16:42;;;;;;;29.20;21.52;;;;;;;4.60;66.70;99625.03;10252000;28;20047;-64
2021/11/25 19:21:44;;;;;;;28.13;21.73;;;;;;;4.74;66.91;99610.09;10247494;28;20073;-64
2021/11/25 19:26:46;;;;;;;30.10;23.05;;;;;;;4.77;66.30;99615.19;10252468;28;20861;-63
2021/11/25 19:31:51;;;;;;;27.35;21.60;;;;;;;4.74;66.56;99607.47;10250305;28;20426;-64
2021/11/25 19:36:53;;;;;;;23.58;18.35;;;;;;;4.85;65.89;99618.16;10251943;28;20061;-63
2021/11/25 19:41:55;;;;;;;26.80;21.58;;;;;;;4.75;65.89;99607.38;10249308;28;20065;-64
2021/11/25 19:46:57;;;;;;;30.15;24.25;;;;;;;4.77;66.13;99597.59;10254557;28;20074;-63
2021/11/25 19:51:59;;;;;;;26.80;21.10;;;;;;;4.84;65.75;99598.00;10255103;28;20069;-64
2021/11/25 19:57:01;;;;;;;31.90;24.77;;;;;;;4.75;66.38;99590.72;10255660;28;20054;-64
2021/11/25 20:02:03;;;;;;;26.40;20.17;;;;;;;4.78;65.81;99587.88;10258974;28;20146;-63
2021/11/25 20:07:05;;;;;;;24.85;19.92;;;;;;;4.74;66.56;99602.19;10274966;28;20050;-64
2021/11/25 20:12:10;;;;;;;25.95;20.58;;;;;;;4.86;65.72;99584.72;10249725;28;20086;-63
2021/11/25 20:17:12;;;;;;;26.83;20.10;;;;;;;4.87;65.72;99584.59;10249095;28;20090;-63
2021/11/25 20:22:13;;;;;;;22.50;17.55;;;;;;;4.77;65.33;99575.63;10247252;28;20166;-63
2021/11/25 20:27:16;;;;;;;21.65;18.02;;;;;;;4.77;65.41;99584.41;10244867;28;20547;-64
2021/11/25 20:32:18;;;;;;;23.40;18.95;;;;;;;4.74;65.94;99573.19;10245679;28;20122;-64
2021/11/25 20:37:20;;;;;;;22.08;19.35;;;;;;;4.91;65.13;99572.91;10242125;28;20205;-64
2021/11/25 20:42:23;;;;;;;20.00;17.23;;;;;;;5.04;65.08;99572.06;10243189;28;20072;-64
2021/11/25 20:47:24;;;;;;;21.23;16.65;;;;;;;5.11;65.40;99563.63;10240028;28;20643;-65
2021/11/25 20:52:26;;;;;;;20.98;17.65;;;;;;;5.11;65.21;99557.50;10246234;28;20058;-64
2021/11/25 20:57:27;;;;;;;27.23;24.30;;;;;;;4.98;65.00;99557.50;10258633;28;20496;-64
2021/11/25 21:02:29;;;;;;;21.17;18.83;;;;;;;5.02;65.64;99543.16;10251092;28;20169;-64
2021/11/25 21:07:30;;;;;;;40.28;36.13;;;;;;;5.08;65.69;99534.81;10252761;28;20047;-65
2021/11/25 21:12:32;;;;;;;24.40;19.92;;;;;;;5.01;65.75;99530.06;10253896;28;20054;-64
2021/11/25 21:17:34;;;;;;;23.65;18.95;;;;;;;5.01;66.49;99530.91;10258838;28;20133;-63
2021/11/25 21:22:36;;;;;;;24.95;19.30;;;;;;;4.98;66.62;99527.66;10268131;28;20618;-63
2021/11/25 21:27:38;;;;;;;22.10;18.73;;;;;;;5.00;66.24;99523.09;10265716;28;20093;-66
2021/11/25 21:32:39;;;;;;;19.40;17.23;;;;;;;5.02;65.95;99521.22;10261625;28;20563;-64
2021/11/25 21:37:41;;;;;;;18.95;16.95;;;;;;;5.07;65.58;99519.09;10260565;28;20050;-64
2021/11/25 21:42:48;;;;;;;20.60;16.52;;;;;;;5.09;64.42;99525.13;10299016;28;20406;-65
2021/11/25 21:47:51;;;;;;;19.98;16.23;;;;;;;5.05;65.26;99515.72;10292534;28;20042;-66
2021/11/25 21:52:56;;;;;;;17.13;15.30;;;;;;;4.97;65.48;99508.34;10309094;28;20046;-65
2021/11/25 21:57:59;;;;;;;19.42;16.58;;;;;;;5.01;65.28;99501.91;10303909;28;20130;-65
2021/11/25 22:03:00;;;;;;;23.58;18.15;;;;;;;4.93;65.60;99497.16;10301126;28;20491;-64
2021/11/25 22:08:02;;;;;;;20.60;17.42;;;;;;;5.05;65.44;99489.34;10302508;28;20047;-64
2021/11/25 22:13:04;;;;;;;19.92;16.35;;;;;;;5.07;65.33;99487.44;10302889;28;20123;-64
2021/11/25 22:18:05;;;;;;;23.90;17.05;;;;;;;5.19;65.31;99483.09;10303250;28;20070;-64
2021/11/25 22:28:27;;;;;;;20.52;17.08;;;;;;;5.26;64.74;99457.97;10304060;28;20136;-65
2021/11/25 22:33:28;;;;;;;20.58;18.20;;;;;;;5.40;64.76;99457.81;10307986;28;20074;-65
2021/11/25 22:38:30;;;;;;;20.55;17.75;;;;;;;5.34;64.00;99452.97;10309002;28;20046;-65
2021/11/25 22:43:31;;;;;;;18.88;16.88;;;;;;;5.28;64.78;99456.06;10316552;28;20073;-64
2021/11/25 22:48:32;;;;;;;19.30;17.17;;;;;;;5.27;64.92;99442.03;10316554;28;20042;-64
2021/11/25 22:53:34;;;;;;;22.65;18.52;;;;;;;5.38;64.50;99433.34;10316296;28;21412;-64
2021/11/25 22:58:35;;;;;;;20.98;17.73;;;;;;;5.34;65.06;99428.41;10313488;28;20133;-64
2021/11/25 23:03:37;;;;;;;22.92;18.85;;;;;;;5.24;64.93;99415.88;10314808;28;21030;-65
2021/11/25 23:08:38;;;;;;;22.95;19.20;;;;;;;5.24;64.82;99415.88;10314403;28;20050;-65
2021/11/25 23:13:40;;;;;;;22.05;17.52;;;;;;;5.17;65.14;99408.50;10313318;28;20064;-65
2021/11/25 23:18:41;;;;;;;23.20;19.63;;;;;;;5.01;65.73;99403.47;10317496;28;20133;-65
2021/11/25 23:23:43;;;;;;;24.75;19.70;;;;;;;5.05;65.83;99411.03;10272979;28;20130;-65
2021/11/25 23:28:44;;;;;;;25.00;18.40;;;;;;;4.88;66.58;99414.03;10271614;28;20047;-65
2021/11/25 23:33:45;;;;;;;25.70;19.17;;;;;;;4.72;67.01;99407.19;10272460;28;20047;-65
2021/11/25 23:38:47;;;;;;;21.95;19.05;;;;;;;4.74;67.37;99401.81;10301967;28;20129;-65